DW7759 Weather Reports


Display with metric or nautical units.
time (UTC)temp
F
wind
direction
speed
MPH
gust
MPH
rain 1hr
in
rain 24hr
in
rain mn
in
humidity
%
barometer
mb
20191024021332 39 169 0.0 2.0 0.00 0.00 0.00 86 1031.6
20191024020427 40 169 0.0 0.0 0.00 0.00 0.00 87 1031.5
20191024015523 41 169 0.0 1.0 0.00 0.00 0.00 82 1031.6
20191024014608 42 169 0.0 0.0 0.00 0.00 0.00 81 1031.7
20191024013723 42 169 0.0 0.0 0.00 0.00 0.00 81 1031.8
20191024012755 43 169 0.0 0.0 0.00 0.00 0.00 78 1031.8
20191024011834 46 169 0.0 0.0 0.00 0.00 0.00 73 1031.8
20191024010952 47 169 0.0 0.0 0.00 0.00 0.00 69 1031.7
20191024010056 50 169 0.0 0.0 0.00 0.00 0.00 64 1031.8
20191024005153 52 169 0.0 0.0 0.00 0.00 0.00 56 1031.6
20191024004256 54 169 0.0 0.0 0.00 0.00 0.00 52 1031.7
20191024003328 55 169 0.0 0.0 0.00 0.00 0.00 51 1031.8
20191024002408 55 169 0.0 0.0 0.00 0.00 0.00 51 1031.7
20191024001518 56 169 0.0 0.0 0.00 0.00 0.00 50 1031.8
20191024000551 56 169 0.0 3.0 0.00 0.00 0.00 49 1031.6
20191023235628 57 178 1.0 3.0 0.00 0.00 0.00 47 1031.7
20191023234655 57 177 1.0 1.0 0.00 0.00 0.00 47 1031.8
20191023233811 57 177 2.0 5.0 0.00 0.00 0.00 46 1031.8
20191023232838 58 175 2.0 6.0 0.00 0.00 0.00 47 1031.9
20191023231935 58 173 3.0 6.0 0.00 0.00 0.00 45 1031.9
20191023231025 58 167 3.0 6.0 0.00 0.00 0.00 46 1031.9
20191023230128 59 172 1.0 6.0 0.00 0.00 0.00 47 1031.9
20191023225245 59 178 0.0 3.0 0.00 0.00 0.00 42 1031.9
20191023224358 59 178 0.0 3.0 0.00 0.00 0.00 44 1031.8
20191023223501 59 178 1.0 4.0 0.00 0.00 0.00 46 1031.9
20191023222616 58 59 1.0 4.0 0.00 0.00 0.00 47 1031.8
20191023221657 58 49 0.0 4.0 0.00 0.00 0.00 47 1031.9
20191023220739 59 157 0.0 3.0 0.00 0.00 0.00 43 1031.9
20191023215832 59 159 2.0 4.0 0.00 0.00 0.00 42 1032.0
20191023213927 59 173 2.0 6.0 0.00 0.00 0.00 44 1031.9
20191023213045 59 163 1.0 5.0 0.00 0.00 0.00 42 1032.0
20191023212151 58 144 0.0 2.0 0.00 0.00 0.00 43 1032.2
20191023211233 58 146 0.0 3.0 0.00 0.00 0.00 43 1032.3
20191023210333 59 153 0.0 2.0 0.00 0.00 0.00 44 1032.3
20191023205433 59 68 1.0 7.0 0.00 0.00 0.00 45 1032.3
20191023204542 58 180 2.0 7.0 0.00 0.00 0.00 42 1032.4
20191023203638 58 155 0.0 5.0 0.00 0.00 0.00 43 1032.4
20191023201723 58 178 3.0 8.0 0.00 0.00 0.00 47 1032.7
20191023200810 57 169 2.0 8.0 0.00 0.00 0.00 44 1032.8
20191023195913 58 204 1.0 7.0 0.00 0.00 0.00 44 1032.8
20191023195028 58 5 1.0 6.0 0.00 0.00 0.00 46 1032.8
20191023194107 57 94 1.0 6.0 0.00 0.00 0.00 45 1032.9
20191023193213 56 164 2.0 6.0 0.00 0.00 0.00 50 1033.0
20191023191302 54 232 1.0 4.0 0.00 0.00 0.00 56 1033.0
20191023190349 53 253 0.0 2.0 0.00 0.00 0.00 61 1033.1
20191023185457 51 254 0.0 1.0 0.00 0.00 0.00 68 1033.2
20191023184605 50 254 0.0 2.0 0.00 0.00 0.00 69 1033.2
20191023183707 49 254 0.0 3.0 0.00 0.00 0.00 70 1033.2
20191023182751 49 254 0.0 3.0 0.00 0.00 0.00 74 1033.2
20191023181857 46 257 0.0 2.0 0.00 0.00 0.00 77 1033.2
20191023180928 45 257 0.0 2.0 0.00 0.00 0.00 77 1033.1
20191023180039 45 257 0.0 2.0 0.00 0.00 0.00 79 1033.3
20191023175125 43 257 0.0 0.0 0.00 0.00 0.00 84 1033.3
20191023174223 43 257 0.0 2.0 0.00 0.00 0.00 87 1033.4
20191023173249 41 257 0.0 2.0 0.00 0.00 0.00 86 1033.2
20191023172401 40 257 0.0 2.0 0.00 0.00 0.00 89 1033.4
20191023171438 38 257 0.0 0.0 0.00 0.00 0.00 90 1033.4
20191023170512 38 257 0.0 2.0 0.00 0.00 0.00 91 1033.2
20191023165542 37 257 0.0 1.0 0.00 0.00 0.00 93 1033.1
20191023164615 36 257 0.0 0.0 0.00 0.00 0.00 93 1033.1
20191023163652 35 257 0.0 0.0 0.00 0.00 0.00 94 1033.0
20191023162756 34 257 0.0 0.0 0.00 0.00 0.00 95 1032.7
20191023161915 33 257 0.0 0.0 0.00 0.00 0.00 95 1032.6
20191023161020 32 257 0.0 0.0 0.00 0.00 0.00 95 1032.5
20191023160054 32 257 0.0 0.0 0.00 0.00 0.00 96 1032.3
20191023155200 31 257 0.0 0.0 0.00 0.00 0.00 96 1032.2
20191023154301 30 257 0.0 0.0 0.00 0.00 0.00 96 1032.0
20191023153403 30 257 0.0 0.0 0.00 0.00 0.00 96 1032.0
20191023152443 29 257 0.0 0.0 0.00 0.00 0.00 96 1031.8
20191023151550 28 257 0.0 0.0 0.00 0.00 0.00 96 1031.7
20191023150627 27 257 0.0 0.0 0.00 0.00 0.00 95 1031.7
20191023145657 25 257 0.0 0.0 0.00 0.00 0.00 95 1031.3
20191023144742 25 257 0.0 0.0 0.00 0.00 0.00 94 1031.2
20191023143830 26 257 0.0 0.0 0.00 0.00 0.00 95 1031.0
20191023142946 27 257 0.0 0.0 0.00 0.00 0.00 95 1031.0
20191023142059 26 257 0.0 0.0 0.00 0.00 0.00 94 1030.9
20191023141201 27 257 0.0 0.0 0.00 0.00 0.00 95 1030.9
20191023140257 27 257 0.0 0.0 0.00 0.00 0.00 95 1030.9
20191023135341 28 257 0.0 0.0 0.00 0.00 0.00 95 1030.7
20191023134429 27 257 0.0 0.0 0.00 0.00 0.00 95 1030.6
20191023133508 27 257 0.0 0.0 0.00 0.00 0.00 95 1030.4
20191023132614 27 257 0.0 0.0 0.00 0.00 0.00 95 1030.3
20191023131717 27 257 0.0 1.0 0.00 0.00 0.00 95 1030.4
20191023130802 27 257 0.0 0.0 0.00 0.00 0.00 95 1030.3
20191023125913 26 257 0.0 0.0 0.00 0.00 0.00 95 1030.3
20191023124942 28 257 0.0 0.0 0.00 0.00 0.00 96 1030.4
20191023124052 27 257 0.0 0.0 0.00 0.00 0.00 95 1030.4
20191023123124 27 257 0.0 0.0 0.00 0.00 0.00 95 1030.4
20191023122200 27 257 0.0 0.0 0.00 0.00 0.00 95 1030.4
20191023121234 28 257 0.0 0.0 0.00 0.00 0.00 95 1030.2
20191023120346 29 257 0.0 0.0 0.00 0.00 0.00 95 1030.1
20191023115426 28 257 0.0 0.0 0.00 0.00 0.00 95 1030.1
20191023114532 28 257 0.0 0.0 0.00 0.03 0.00 95 1029.8
20191023113633 28 257 0.0 0.0 0.00 0.03 0.00 95 1029.6
20191023112718 28 257 0.0 1.0 0.00 0.05 0.00 95 1029.5
20191023111820 30 257 0.0 0.0 0.00 0.05 0.00 95 1029.4
20191023110912 29 257 0.0 0.0 0.00 0.05 0.00 95 1029.3
20191023110006 29 257 0.0 0.0 0.00 0.05 0.00 95 1029.3
20191023105035 29 257 0.0 1.0 0.00 0.05 0.00 95 1029.3
20191023104145 28 257 0.0 2.0 0.00 0.05 0.00 92 1029.2
20191023103252 30 257 0.0 0.0 0.00 0.06 0.00 95 1029.2
20191023102404 30 257 0.0 0.0 0.00 0.06 0.00 95 1029.3
20191023101437 32 257 0.0 0.0 0.00 0.06 0.00 95 1029.2
20191023100551 31 257 0.0 0.0 0.00 0.06 0.00 95 1029.2
20191023095659 31 257 0.0 0.0 0.00 0.06 0.00 95 1029.2
20191023094804 31 257 0.0 0.0 0.00 0.06 0.00 95 1029.2
20191023093830 29 257 0.0 0.0 0.00 0.06 0.00 93 1029.0
20191023092939 32 257 0.0 0.0 0.00 0.06 0.00 95 1028.9
20191023092028 31 257 0.0 0.0 0.00 0.06 0.00 95 1028.7
20191023091101 32 257 0.0 0.0 0.00 0.06 0.00 95 1028.8
20191023090158 31 257 0.0 0.0 0.00 0.06 0.00 93 1028.6
20191023085256 32 257 0.0 0.0 0.00 0.06 0.00 95 1028.6
20191023084403 33 257 0.0 0.0 0.00 0.06 0.00 95 1028.6
20191023083446 33 255 0.0 3.0 0.00 0.06 0.00 95 1028.5
20191023082521 33 240 0.0 1.0 0.00 0.06 0.00 95 1028.4
20191023081615 31 239 0.0 2.0 0.00 0.06 0.00 93 1028.5
20191023080653 32 239 0.0 0.0 0.00 0.06 0.00 94 1028.4
20191023075751 33 239 0.0 0.0 0.00 0.06 0.00 94 1028.4
20191023074828 33 239 0.0 2.0 0.00 0.06 0.00 94 1028.4
20191023073934 34 238 0.0 0.0 0.00 0.06 0.00 94 1028.1
20191023073008 35 238 0.0 1.0 0.00 0.06 0.00 94 1028.0
20191023072122 34 238 0.0 3.0 0.00 0.06 0.00 93 1027.9
20191023071155 34 238 0.0 2.0 0.00 0.06 0.00 95 1027.9
20191023070228 33 238 1.0 2.0 0.00 0.06 0.00 91 1027.8
20191023065323 35 238 0.0 1.0 0.00 0.06 0.06 94 1027.7
20191023064411 35 238 0.0 2.0 0.00 0.06 0.06 94 1027.9
20191023063446 34 238 0.0 1.0 0.00 0.06 0.06 94 1027.8
20191023062549 35 238 0.0 0.0 0.00 0.06 0.06 94 1027.8
20191023061653 35 238 0.0 2.0 0.00 0.06 0.06 91 1027.6
20191023060725 36 238 0.0 1.0 0.00 0.06 0.06 92 1027.7
20191023055803 37 238 0.0 0.0 0.00 0.06 0.06 93 1027.5
20191023054904 37 238 0.0 0.0 0.00 0.06 0.06 93 1027.2
20191023054023 36 238 0.0 3.0 0.00 0.06 0.06 94 1027.4
20191023053100 36 200 0.0 1.0 0.00 0.06 0.06 92 1027.0
20191023052140 36 200 0.0 1.0 0.00 0.06 0.06 92 1026.8
20191023051217 37 200 0.0 0.0 0.00 0.06 0.06 93 1026.6
20191023050316 37 200 0.0 1.0 0.00 0.06 0.06 89 1026.3
20191023045405 37 200 0.0 3.0 0.00 0.06 0.06 89 1026.3
20191023044511 39 200 0.0 0.0 0.00 0.06 0.06 90 1026.1
20191023043604 40 200 0.0 1.0 0.00 0.06 0.06 90 1025.9
20191023042720 39 200 0.0 0.0 0.00 0.06 0.06 88 1025.9
20191023041749 41 199 0.0 1.0 0.00 0.06 0.06 87 1025.9
20191023040828 42 198 1.0 2.0 0.00 0.06 0.06 84 1026.1
20191023035913 42 199 0.0 3.0 0.00 0.06 0.06 85 1026.0
20191023034939 41 199 0.0 2.0 0.00 0.06 0.06 87 1025.9
20191023034246 42 198 0.0 0.0 0.00 0.06 0.06 83 1025.8
20191023032250 42 188 0.0 2.0 0.00 0.06 0.06 82 1025.8
20191023031407 43 188 0.0 1.0 0.00 0.06 0.06 78 1025.8
20191023030434 45 188 0.0 1.0 0.00 0.06 0.06 73 1025.6
20191023025535 46 188 0.0 2.0 0.00 0.06 0.06 72 1025.5
20191023024619 51 188 1.0 5.0 0.00 0.06 0.06 61 1025.6
20191023023706 52 189 3.0 8.0 0.00 0.06 0.06 62 1025.7
20191023022740 52 196 4.0 8.0 0.00 0.06 0.06 60 1025.6
20191023021817 52 202 5.0 12.0 0.00 0.06 0.06 63 1025.6